createdAt,value
2018-09-06T00:02:05.986Z,99.90
2018-09-06T00:04:34.671Z,99.90
2018-09-06T00:07:03.384Z,99.90
2018-09-06T00:09:32.078Z,99.90
2018-09-06T00:12:00.855Z,99.90
2018-09-06T00:14:29.585Z,99.90
2018-09-06T00:16:58.318Z,99.90
2018-09-06T00:19:27.060Z,99.90
2018-09-06T00:21:55.728Z,99.90
2018-09-06T00:24:24.457Z,99.90
2018-09-06T00:26:53.190Z,99.90
2018-09-06T00:29:21.957Z,99.90
2018-09-06T00:31:50.646Z,99.90
2018-09-06T00:34:19.408Z,99.90
2018-09-06T00:36:48.096Z,99.90
2018-09-06T00:39:16.855Z,99.90
2018-09-06T00:41:45.529Z,99.90
2018-09-06T00:44:14.289Z,99.90
2018-09-06T00:46:43.018Z,99.90
2018-09-06T00:49:11.748Z,99.90
2018-09-06T00:51:40.465Z,99.90
2018-09-06T00:54:09.165Z,99.90
2018-09-06T00:56:37.929Z,99.90
2018-09-06T00:59:06.640Z,99.90
2018-09-06T01:01:35.408Z,99.90
2018-09-06T01:04:04.160Z,99.90
2018-09-06T01:06:32.893Z,99.90
2018-09-06T01:09:01.558Z,99.90
2018-09-06T01:11:34.197Z,99.90
2018-09-06T01:14:06.526Z,99.90
2018-09-06T01:16:37.092Z,99.90
2018-09-06T01:19:08.089Z,99.90
2018-09-06T01:21:40.079Z,99.90
2018-09-06T01:24:13.879Z,99.90
2018-09-06T01:26:46.951Z,99.90
2018-09-06T01:29:21.374Z,99.90
2018-09-06T01:31:56.665Z,99.90
2018-09-06T01:34:31.018Z,99.90
2018-09-06T01:37:09.674Z,99.90
2018-09-06T01:39:42.975Z,99.90
2018-09-06T01:42:17.240Z,99.90
2018-09-06T01:44:50.138Z,99.90
2018-09-06T01:47:27.294Z,99.90
2018-09-06T01:50:00.055Z,99.90
2018-09-06T01:52:33.191Z,99.90
2018-09-06T01:55:06.260Z,99.90
2018-09-06T01:57:40.330Z,99.90
2018-09-06T02:00:15.491Z,99.90
2018-09-06T02:02:49.797Z,99.90
2018-09-06T02:05:27.033Z,99.90
2018-09-06T02:08:04.683Z,99.90
2018-09-06T02:10:37.907Z,99.90
2018-09-06T02:13:12.446Z,99.90
2018-09-06T02:15:49.621Z,99.90
2018-09-06T02:18:25.151Z,99.90
2018-09-06T02:21:00.033Z,99.90
2018-09-06T02:23:36.270Z,99.90
2018-09-06T02:26:10.227Z,99.90
2018-09-06T02:28:44.395Z,99.90
2018-09-06T02:31:17.404Z,99.90
2018-09-06T02:33:51.326Z,99.90
2018-09-06T02:36:25.401Z,99.90
2018-09-06T02:38:59.250Z,99.90
2018-09-06T02:41:43.721Z,99.90
2018-09-06T02:44:15.293Z,99.90
2018-09-06T02:46:48.685Z,99.90
2018-09-06T02:49:24.930Z,99.90
2018-09-06T02:51:57.157Z,99.90
2018-09-06T02:54:29.744Z,99.90
2018-09-06T02:57:02.603Z,99.90
2018-09-06T02:59:36.677Z,99.90
2018-09-06T03:02:09.164Z,99.90
2018-09-06T03:04:41.875Z,99.90
2018-09-06T03:07:15.847Z,99.90
2018-09-06T03:09:48.118Z,99.90
2018-09-06T03:12:17.972Z,99.90
2018-09-06T03:14:46.762Z,99.90
2018-09-06T03:17:15.510Z,99.90
2018-09-06T03:19:44.223Z,99.90
2018-09-06T03:22:12.872Z,99.90
2018-09-06T03:24:41.576Z,99.90
2018-09-06T03:27:10.313Z,99.90
2018-09-06T03:29:38.961Z,99.90
2018-09-06T03:32:07.673Z,99.90
2018-09-06T03:34:36.514Z,99.90
2018-09-06T03:37:05.193Z,99.90
2018-09-06T03:39:33.909Z,99.90
2018-09-06T03:42:02.706Z,99.90
2018-09-06T03:44:31.419Z,99.90
2018-09-06T03:47:00.204Z,99.90
2018-09-06T03:49:28.954Z,99.90
2018-09-06T03:51:57.686Z,99.90
2018-09-06T03:54:26.457Z,99.90
2018-09-06T03:56:55.253Z,99.90
2018-09-06T03:59:23.962Z,99.90
2018-09-06T04:01:52.621Z,99.90
2018-09-06T04:04:21.356Z,99.90
2018-09-06T04:06:50.041Z,99.90
2018-09-06T04:09:18.777Z,99.90
2018-09-06T04:11:47.504Z,99.90
2018-09-06T04:14:16.250Z,99.90
2018-09-06T04:16:45.095Z,99.90
2018-09-06T04:19:13.760Z,99.90
2018-09-06T04:21:42.422Z,99.90
2018-09-06T04:24:11.246Z,99.90
2018-09-06T04:26:39.942Z,99.90
2018-09-06T04:29:08.717Z,99.90
2018-09-06T04:31:37.372Z,99.90
2018-09-06T04:34:06.211Z,99.90
2018-09-06T04:36:34.962Z,99.90
2018-09-06T04:39:04.423Z,99.90
2018-09-06T04:41:33.162Z,99.90
2018-09-06T04:44:01.956Z,99.90
2018-09-06T04:46:30.625Z,99.90
2018-09-06T04:48:59.314Z,99.90
2018-09-06T04:51:28.005Z,99.90
2018-09-06T04:53:56.757Z,99.90
2018-09-06T04:56:25.455Z,99.90
2018-09-06T04:58:54.278Z,99.90
2018-09-06T05:01:23.022Z,99.90
2018-09-06T05:03:52.649Z,99.90
2018-09-06T05:06:21.358Z,99.90
2018-09-06T05:08:50.149Z,99.90
2018-09-06T05:11:18.953Z,99.90
2018-09-06T05:13:47.707Z,99.90
2018-09-06T05:16:16.428Z,99.90
2018-09-06T05:18:45.167Z,99.90
2018-09-06T05:21:13.875Z,99.90
2018-09-06T05:23:42.601Z,99.90
2018-09-06T05:26:11.330Z,99.90
2018-09-06T05:28:40.036Z,99.90
2018-09-06T05:31:08.817Z,99.90
2018-09-06T05:33:37.542Z,99.90
2018-09-06T05:36:06.273Z,99.90
2018-09-06T05:38:34.971Z,99.90
2018-09-06T05:41:03.711Z,99.90
2018-09-06T05:43:32.496Z,99.90
2018-09-06T05:46:01.228Z,99.90
2018-09-06T05:48:29.952Z,99.90
2018-09-06T05:50:58.746Z,99.90
2018-09-06T05:53:27.797Z,99.90
2018-09-06T05:55:56.637Z,99.90
2018-09-06T05:58:25.409Z,99.90
2018-09-06T06:00:54.159Z,99.90
2018-09-06T06:03:23.033Z,99.90
2018-09-06T06:05:51.794Z,99.90
2018-09-06T06:08:31.743Z,99.90
2018-09-06T06:11:00.501Z,99.90
2018-09-06T06:13:29.224Z,99.90
2018-09-06T06:15:58.048Z,99.90
2018-09-06T06:18:26.798Z,99.90
2018-09-06T06:20:55.617Z,99.90
2018-09-06T06:23:24.319Z,99.90
2018-09-06T06:25:53.050Z,99.90
2018-09-06T06:28:22.141Z,99.90
2018-09-06T06:30:50.808Z,99.90
2018-09-06T06:33:19.547Z,99.90
2018-09-06T06:35:48.225Z,99.90
2018-09-06T06:38:16.975Z,99.90
2018-09-06T06:40:45.659Z,99.90
2018-09-06T06:43:14.516Z,99.90
2018-09-06T06:45:43.494Z,99.90
2018-09-06T06:48:12.601Z,99.90
2018-09-06T06:50:42.269Z,99.90
2018-09-06T06:53:12.326Z,99.90
2018-09-06T06:55:41.826Z,99.90
2018-09-06T06:58:11.732Z,99.90
2018-09-06T07:00:41.845Z,99.90
2018-09-06T07:03:12.332Z,99.90
2018-09-06T07:05:41.840Z,99.90
2018-09-06T07:08:11.205Z,99.90
2018-09-06T07:10:40.245Z,99.90
2018-09-06T07:13:09.643Z,99.90
2018-09-06T07:15:48.379Z,99.90
2018-09-06T07:18:18.245Z,99.90
2018-09-06T07:20:46.993Z,99.90
2018-09-06T07:23:15.847Z,99.90
2018-09-06T07:25:44.632Z,99.90
2018-09-06T07:28:13.395Z,99.90
2018-09-06T07:30:42.179Z,99.90
2018-09-06T07:33:10.891Z,99.90
2018-09-06T07:35:41.817Z,99.90
2018-09-06T07:38:28.429Z,99.90
2018-09-06T07:40:58.253Z,99.90
2018-09-06T07:43:28.093Z,99.90
2018-09-06T07:45:56.926Z,99.90
2018-09-06T07:48:25.708Z,99.90
2018-09-06T07:50:54.453Z,99.90
2018-09-06T07:53:23.170Z,99.90
2018-09-06T07:55:51.893Z,99.90
2018-09-06T07:58:20.602Z,99.90
2018-09-06T08:00:49.325Z,99.90
2018-09-06T08:03:18.153Z,99.90
2018-09-06T08:05:46.943Z,99.90
2018-09-06T08:08:15.767Z,99.90
2018-09-06T08:10:44.468Z,99.90
2018-09-06T08:13:13.336Z,99.90
2018-09-06T08:15:42.046Z,99.90
2018-09-06T08:18:10.904Z,99.70
2018-09-06T08:20:39.781Z,99.40
2018-09-06T08:23:08.580Z,99.30
2018-09-06T08:25:37.535Z,99.30
2018-09-06T08:28:07.283Z,99.50
2018-09-06T08:30:36.313Z,99.90
2018-09-06T08:33:05.528Z,99.50
2018-09-06T08:35:34.318Z,99.30
2018-09-06T08:38:03.049Z,98.80
2018-09-06T08:40:31.839Z,98.00
2018-09-06T08:43:00.560Z,98.10
2018-09-06T08:45:29.433Z,97.60
2018-09-06T08:47:58.300Z,97.50
2018-09-06T08:50:27.132Z,97.10
2018-09-06T08:52:56.081Z,97.10
2018-09-06T08:55:25.002Z,96.70
2018-09-06T08:57:53.934Z,96.40
2018-09-06T09:00:22.702Z,96.70
2018-09-06T09:02:51.693Z,96.80
2018-09-06T09:05:20.630Z,96.50
2018-09-06T09:07:49.353Z,96.60
2018-09-06T09:10:18.288Z,97.00
2018-09-06T09:12:47.028Z,96.50
2018-09-06T09:15:15.874Z,95.20
2018-09-06T09:17:44.584Z,95.20
2018-09-06T09:20:13.345Z,94.60
2018-09-06T09:22:42.140Z,95.20
2018-09-06T09:25:10.918Z,95.20
2018-09-06T09:27:44.822Z,95.20
2018-09-06T09:30:14.178Z,94.60
2018-09-06T09:32:43.161Z,94.70
2018-09-06T09:35:12.015Z,94.70
2018-09-06T09:37:40.860Z,94.40
2018-09-06T09:40:09.664Z,93.60
2018-09-06T09:42:38.612Z,93.10
2018-09-06T09:45:07.412Z,92.80
2018-09-06T09:50:05.019Z,90.00
2018-09-06T09:52:34.893Z,87.50
2018-09-06T09:55:03.663Z,86.60
2018-09-06T09:57:32.401Z,86.20
2018-09-06T10:00:01.297Z,87.20
2018-09-06T10:02:36.701Z,83.50
2018-09-06T10:05:10.762Z,81.50
2018-09-06T10:07:45.462Z,80.50
2018-09-06T10:10:14.329Z,81.20
2018-09-06T10:12:43.242Z,80.90
2018-09-06T10:15:12.249Z,77.30
2018-09-06T10:17:41.032Z,72.90
2018-09-06T10:20:09.804Z,69.80
2018-09-06T10:22:38.961Z,64.90
2018-09-06T10:25:07.806Z,58.40
2018-09-06T10:27:36.690Z,54.90
2018-09-06T10:30:05.736Z,53.20
2018-09-06T10:32:34.571Z,55.10
2018-09-06T10:35:03.438Z,56.90
2018-09-06T10:37:32.372Z,57.30
2018-09-06T10:40:01.170Z,55.50
2018-09-06T10:42:29.886Z,55.00
2018-09-06T10:44:59.397Z,52.50
2018-09-06T10:47:28.195Z,49.60
2018-09-06T10:49:56.933Z,50.00
2018-09-06T10:52:25.697Z,53.50
2018-09-06T10:54:54.476Z,52.80
2018-09-06T10:57:23.257Z,50.00
2018-09-06T10:59:52.258Z,46.90
2018-09-06T11:02:21.164Z,43.70
2018-09-06T11:04:50.443Z,42.10
2018-09-06T11:07:19.346Z,40.50
2018-09-06T11:09:48.094Z,37.50
2018-09-06T11:12:16.888Z,37.50
2018-09-06T11:14:45.709Z,36.00
2018-09-06T11:17:14.513Z,35.50
2018-09-06T11:19:43.203Z,36.80
2018-09-06T11:22:12.618Z,38.40
2018-09-06T11:24:41.162Z,37.70
2018-09-06T11:27:09.907Z,36.20
2018-09-06T11:29:45.244Z,34.00
2018-09-06T11:32:21.690Z,33.90
2018-09-06T11:34:50.809Z,35.10
2018-09-06T11:37:19.735Z,38.50
2018-09-06T11:39:48.577Z,42.00
2018-09-06T11:42:17.689Z,45.30
2018-09-06T11:44:47.535Z,45.00
2018-09-06T11:47:16.503Z,46.80
2018-09-06T11:49:45.228Z,48.40
2018-09-06T11:52:14.017Z,48.80
2018-09-06T11:54:42.863Z,51.50
2018-09-06T11:57:11.828Z,51.70
2018-09-06T11:59:40.592Z,53.40
2018-09-06T12:02:10.058Z,52.40
2018-09-06T12:04:38.990Z,53.30
2018-09-06T12:07:07.809Z,54.70
2018-09-06T12:09:36.573Z,55.50
2018-09-06T12:12:05.417Z,55.90
2018-09-06T12:14:34.153Z,56.70
2018-09-06T12:17:03.000Z,57.70
2018-09-06T12:19:31.702Z,58.00
2018-09-06T12:22:00.587Z,58.60
2018-09-06T12:24:29.388Z,59.00
2018-09-06T12:26:58.209Z,58.90
2018-09-06T12:29:27.045Z,59.60
2018-09-06T12:31:55.991Z,59.80
2018-09-06T12:34:24.775Z,60.20
2018-09-06T12:36:53.481Z,61.00
2018-09-06T12:39:22.286Z,60.70
2018-09-06T12:41:51.179Z,59.90
2018-09-06T12:44:19.964Z,60.00
2018-09-06T12:46:48.716Z,60.10
2018-09-06T12:49:17.570Z,61.70
2018-09-06T12:51:46.400Z,61.30
2018-09-06T12:54:15.556Z,61.60
2018-09-06T12:56:45.242Z,59.20
2018-09-06T12:59:14.208Z,60.00
2018-09-06T13:01:44.465Z,63.50
2018-09-06T13:04:13.441Z,63.20
2018-09-06T13:06:42.264Z,62.20
2018-09-06T13:09:10.981Z,61.20
2018-09-06T13:11:39.922Z,60.30
2018-09-06T13:14:08.718Z,60.30
2018-09-06T13:16:37.603Z,59.00
2018-09-06T13:19:06.501Z,59.20
2018-09-06T13:21:35.312Z,58.60
2018-09-06T13:24:04.098Z,58.40
2018-09-06T13:26:32.884Z,60.20
2018-09-06T13:29:01.640Z,58.30
2018-09-06T13:31:30.589Z,56.40
2018-09-06T13:33:59.302Z,56.40
2018-09-06T13:36:28.243Z,57.10
2018-09-06T13:38:57.219Z,57.10
2018-09-06T13:41:26.021Z,55.70
2018-09-06T13:43:54.813Z,56.00
2018-09-06T13:46:23.834Z,57.60
2018-09-06T13:48:52.579Z,54.80
2018-09-06T13:51:21.513Z,55.20
2018-09-06T13:53:50.342Z,54.50
2018-09-06T13:56:19.203Z,54.50
2018-09-06T13:58:47.986Z,56.30
2018-09-06T14:01:16.903Z,55.70
2018-09-06T14:03:45.713Z,55.60
2018-09-06T14:06:14.654Z,56.20
2018-09-06T14:08:43.495Z,56.60
2018-09-06T14:11:12.370Z,56.00
2018-09-06T14:13:41.167Z,56.00
2018-09-06T14:16:10.050Z,56.00
2018-09-06T14:18:38.942Z,55.90
2018-09-06T14:21:07.782Z,56.30
2018-09-06T14:23:36.695Z,57.20
2018-09-06T14:26:05.751Z,58.10
2018-09-06T14:28:34.624Z,55.20
2018-09-06T14:31:03.749Z,55.70
2018-09-06T14:33:33.254Z,57.90
2018-09-06T14:36:02.128Z,57.30
2018-09-06T14:38:31.058Z,55.20
2018-09-06T14:40:59.777Z,55.60
2018-09-06T14:43:28.625Z,57.00
2018-09-06T14:45:57.435Z,57.40
2018-09-06T14:48:27.971Z,56.60
2018-09-06T14:50:56.789Z,57.60
2018-09-06T14:53:25.450Z,57.20
2018-09-06T14:55:54.384Z,58.50
2018-09-06T14:58:23.165Z,58.00
2018-09-06T15:00:51.959Z,58.40
2018-09-06T15:03:20.714Z,58.20
2018-09-06T15:05:49.566Z,56.80
2018-09-06T15:08:18.330Z,57.00
2018-09-06T15:10:47.355Z,57.10
2018-09-06T15:13:16.120Z,57.60
2018-09-06T15:15:44.922Z,57.10
2018-09-06T15:18:13.665Z,57.20
2018-09-06T15:20:42.332Z,58.50
2018-09-06T15:23:11.151Z,56.70
2018-09-06T15:25:40.042Z,57.00
2018-09-06T15:28:08.798Z,56.50
2018-09-06T15:30:39.764Z,56.10
2018-09-06T15:33:08.557Z,56.70
2018-09-06T15:35:38.507Z,56.50
2018-09-06T15:38:07.805Z,57.30
2018-09-06T15:40:36.561Z,57.10
2018-09-06T15:43:05.428Z,57.50
2018-09-06T15:45:34.393Z,58.10
2018-09-06T15:48:03.141Z,60.10
2018-09-06T15:50:31.930Z,58.40
2018-09-06T15:53:00.721Z,58.30
2018-09-06T15:55:29.482Z,58.30
2018-09-06T15:57:58.271Z,61.10
2018-09-06T16:00:27.136Z,61.80
2018-09-06T16:02:55.851Z,63.70
2018-09-06T16:05:24.655Z,65.10
2018-09-06T16:07:53.456Z,64.40
2018-09-06T16:10:22.157Z,64.40
2018-09-06T16:12:50.925Z,66.80
2018-09-06T16:15:19.827Z,70.00
2018-09-06T16:17:48.704Z,70.50
2018-09-06T16:20:17.487Z,71.30
2018-09-06T16:22:46.726Z,73.30
2018-09-06T16:25:15.775Z,73.90
2018-09-06T16:27:44.606Z,75.10
2018-09-06T16:30:13.525Z,80.80
2018-09-06T16:32:42.300Z,83.50
2018-09-06T16:35:11.041Z,85.40
2018-09-06T16:37:39.785Z,86.70
2018-09-06T16:40:08.531Z,88.40
2018-09-06T16:42:37.349Z,90.30
2018-09-06T16:45:06.059Z,90.30
2018-09-06T16:47:34.896Z,91.00
2018-09-06T16:50:03.707Z,91.90
2018-09-06T16:52:32.664Z,93.60
2018-09-06T16:55:01.432Z,97.40
2018-09-06T16:57:30.103Z,99.90
2018-09-06T16:59:58.913Z,99.90
2018-09-06T17:02:27.635Z,99.90
2018-09-06T17:04:56.470Z,99.90
2018-09-06T17:07:25.321Z,99.90
2018-09-06T17:09:54.142Z,99.90
2018-09-06T17:12:22.971Z,99.90
2018-09-06T17:14:51.768Z,99.90
2018-09-06T17:17:20.541Z,99.90
2018-09-06T17:19:49.283Z,99.90
2018-09-06T17:22:17.988Z,99.90
2018-09-06T17:24:46.807Z,99.90
2018-09-06T17:27:15.518Z,99.90
2018-09-06T17:29:44.210Z,99.90
2018-09-06T17:32:12.942Z,99.90
2018-09-06T17:34:41.782Z,99.90
2018-09-06T17:37:10.449Z,99.90
2018-09-06T17:39:39.191Z,99.90
2018-09-06T17:42:07.924Z,99.90
2018-09-06T17:44:36.632Z,99.90
2018-09-06T17:47:05.560Z,99.90
2018-09-06T17:49:34.329Z,99.90
2018-09-06T17:52:03.105Z,99.90
2018-09-06T17:54:31.909Z,99.90
2018-09-06T17:57:00.641Z,99.90
2018-09-06T17:59:29.369Z,99.90
2018-09-06T18:01:58.207Z,99.90
2018-09-06T18:04:27.032Z,99.90
2018-09-06T18:06:55.837Z,99.90
2018-09-06T18:09:24.624Z,99.90
2018-09-06T18:11:53.418Z,99.90
2018-09-06T18:14:22.154Z,99.90
2018-09-06T18:16:50.877Z,99.90
2018-09-06T18:19:19.670Z,99.90
2018-09-06T18:21:48.396Z,99.90
2018-09-06T18:24:17.161Z,99.90
2018-09-06T18:26:45.870Z,99.90
2018-09-06T18:29:14.661Z,99.90
2018-09-06T18:31:43.519Z,99.90
2018-09-06T18:34:12.249Z,99.90
2018-09-06T18:36:40.932Z,99.90
2018-09-06T18:39:09.681Z,99.90
2018-09-06T18:41:38.401Z,99.90
2018-09-06T18:44:07.222Z,99.90
2018-09-06T18:46:35.970Z,99.90
2018-09-06T18:49:04.702Z,99.90
2018-09-06T18:51:33.519Z,99.90
2018-09-06T18:54:02.240Z,99.90
2018-09-06T18:56:31.036Z,99.90
2018-09-06T18:58:59.777Z,99.90
2018-09-06T19:01:28.465Z,99.90
2018-09-06T19:03:57.207Z,99.90
2018-09-06T19:06:25.904Z,99.90
2018-09-06T19:08:54.726Z,99.90
2018-09-06T19:11:23.505Z,99.90
2018-09-06T19:13:52.238Z,99.90
2018-09-06T19:16:21.075Z,99.90
2018-09-06T19:18:49.884Z,99.90
2018-09-06T19:21:18.622Z,99.90
2018-09-06T19:23:47.352Z,99.90
2018-09-06T19:26:16.205Z,99.90
2018-09-06T19:28:44.942Z,99.90
2018-09-06T19:31:13.793Z,99.90
2018-09-06T19:33:42.549Z,99.90
2018-09-06T19:36:11.305Z,99.90
2018-09-06T19:38:40.728Z,99.90
2018-09-06T19:41:09.480Z,99.90
2018-09-06T19:43:38.224Z,99.90
2018-09-06T19:46:07.198Z,99.90
2018-09-06T19:48:35.877Z,99.90
2018-09-06T19:51:04.695Z,99.90
2018-09-06T19:53:33.441Z,99.90
2018-09-06T19:56:02.140Z,99.90
2018-09-06T19:58:30.856Z,99.90
2018-09-06T20:00:59.611Z,99.90
2018-09-06T20:03:32.691Z,99.90
2018-09-06T20:06:03.639Z,99.90
2018-09-06T20:08:32.309Z,99.90
2018-09-06T20:11:00.992Z,99.90
2018-09-06T20:13:29.690Z,99.90
2018-09-06T20:15:58.509Z,99.90
2018-09-06T20:18:27.291Z,99.90
2018-09-06T20:20:56.058Z,99.90
2018-09-06T20:23:24.796Z,99.90
2018-09-06T20:25:53.608Z,99.90
2018-09-06T20:28:22.354Z,99.90
2018-09-06T20:30:51.169Z,99.90
2018-09-06T20:33:19.881Z,99.90
2018-09-06T20:35:48.676Z,99.90
2018-09-06T20:38:17.434Z,99.90
2018-09-06T20:40:46.176Z,99.90
2018-09-06T20:43:15.000Z,99.90
2018-09-06T20:45:43.737Z,99.90
2018-09-06T20:48:12.602Z,99.90
2018-09-06T20:50:41.411Z,99.90
2018-09-06T20:53:10.209Z,99.90
2018-09-06T20:55:38.958Z,99.90
2018-09-06T20:58:07.719Z,99.90
2018-09-06T21:00:36.491Z,99.90
2018-09-06T21:03:05.274Z,99.90
2018-09-06T21:05:34.133Z,99.90
2018-09-06T21:08:02.857Z,99.90
2018-09-06T21:10:31.688Z,99.90
2018-09-06T21:13:00.484Z,99.90
2018-09-06T21:15:29.221Z,99.90
2018-09-06T21:17:57.949Z,99.90
2018-09-06T21:20:26.657Z,99.90
2018-09-06T21:22:55.550Z,99.90
2018-09-06T21:25:24.325Z,99.90
2018-09-06T21:27:53.029Z,99.90
2018-09-06T21:30:21.992Z,99.90
2018-09-06T21:32:50.772Z,99.90
2018-09-06T21:35:19.549Z,99.90
2018-09-06T21:37:48.346Z,99.90
2018-09-06T21:40:17.042Z,99.90
2018-09-06T21:42:45.782Z,99.90
2018-09-06T21:45:14.533Z,99.90
2018-09-06T21:47:43.352Z,99.90
2018-09-06T21:50:12.059Z,99.90
2018-09-06T21:52:40.837Z,99.90
2018-09-06T21:55:09.704Z,99.90
2018-09-06T21:57:38.457Z,99.90
2018-09-06T22:00:07.461Z,99.90
2018-09-06T22:02:41.353Z,99.90
2018-09-06T22:05:10.186Z,99.90
2018-09-06T22:07:38.867Z,99.90
2018-09-06T22:10:07.647Z,99.90
2018-09-06T22:12:36.409Z,99.90
2018-09-06T22:15:05.154Z,99.90
2018-09-06T22:17:34.127Z,99.90
2018-09-06T22:20:03.000Z,99.90
2018-09-06T22:22:31.772Z,99.90
2018-09-06T22:25:00.479Z,99.90
2018-09-06T22:27:29.215Z,99.90
2018-09-06T22:29:58.012Z,99.90
2018-09-06T22:32:26.821Z,99.90
2018-09-06T22:34:55.633Z,99.90
2018-09-06T22:37:24.454Z,99.90
2018-09-06T22:39:53.209Z,99.90
2018-09-06T22:42:21.929Z,99.90
2018-09-06T22:44:50.833Z,99.90
2018-09-06T22:47:20.278Z,99.90
2018-09-06T22:49:49.043Z,99.90
2018-09-06T22:52:17.829Z,99.90
2018-09-06T22:54:46.505Z,99.90
2018-09-06T22:57:15.304Z,99.90
2018-09-06T22:59:44.087Z,99.90
2018-09-06T23:02:12.810Z,99.90
2018-09-06T23:04:41.540Z,99.90
2018-09-06T23:07:10.368Z,99.90
2018-09-06T23:09:39.101Z,99.90
2018-09-06T23:12:07.801Z,99.90
2018-09-06T23:14:36.491Z,99.90
2018-09-06T23:17:05.251Z,99.90
2018-09-06T23:19:33.974Z,99.90
2018-09-06T23:22:02.718Z,99.90
2018-09-06T23:24:31.434Z,99.90
2018-09-06T23:27:00.257Z,99.90
2018-09-06T23:29:29.032Z,99.90
2018-09-06T23:31:57.735Z,99.90
2018-09-06T23:34:30.356Z,99.90
2018-09-06T23:36:59.085Z,99.90
2018-09-06T23:39:27.805Z,99.90
2018-09-06T23:41:56.502Z,99.90
2018-09-06T23:44:25.270Z,99.90
2018-09-06T23:46:54.026Z,99.90
2018-09-06T23:49:22.809Z,99.90
2018-09-06T23:51:51.630Z,99.90
2018-09-06T23:54:20.426Z,99.90
2018-09-06T23:56:49.208Z,99.90
2018-09-06T23:59:17.890Z,99.90
